createdAt,value
2019-03-16T00:01:56.560Z,77.72
2019-03-16T00:04:19.057Z,77.93
2019-03-16T00:06:50.536Z,77.90
2019-03-16T00:09:22.073Z,77.31
2019-03-16T00:11:53.461Z,77.08
2019-03-16T00:14:44.328Z,77.38
2019-03-16T00:20:18.352Z,77.58
2019-03-16T00:22:49.891Z,77.47
2019-03-16T00:25:21.276Z,77.03
2019-03-16T00:27:52.813Z,77.54
2019-03-16T00:30:24.207Z,77.57
2019-03-16T00:32:55.522Z,77.61
2019-03-16T00:35:27.110Z,77.63
2019-03-16T00:37:58.482Z,77.67
2019-03-16T00:40:30.085Z,77.90
2019-03-16T00:43:01.704Z,78.46
2019-03-16T00:45:33.145Z,78.89
2019-03-16T00:48:04.601Z,79.30
2019-03-16T00:50:36.224Z,79.70
2019-03-16T00:53:07.756Z,79.83
2019-03-16T00:55:39.069Z,80.31
2019-03-16T00:58:10.751Z,80.25
2019-03-16T01:00:42.268Z,80.23
2019-03-16T01:03:13.669Z,80.34
2019-03-16T01:05:45.062Z,80.06
2019-03-16T01:08:16.270Z,79.86
2019-03-16T01:10:48.275Z,79.44
2019-03-16T01:13:19.748Z,79.22
2019-03-16T01:15:51.142Z,78.70
2019-03-16T01:18:22.656Z,77.71
2019-03-16T01:20:54.153Z,76.99
2019-03-16T01:23:25.604Z,77.38
2019-03-16T01:25:57.005Z,77.01
2019-03-16T01:28:28.579Z,77.01
2019-03-16T01:31:03.016Z,77.11
2019-03-16T01:33:34.374Z,77.13
2019-03-16T01:36:05.583Z,76.81
2019-03-16T01:38:39.277Z,76.46
2019-03-16T01:41:10.700Z,76.25
2019-03-16T01:43:47.438Z,76.05
2019-03-16T01:46:36.703Z,75.63
2019-03-16T01:49:09.240Z,76.19
2019-03-16T01:51:40.714Z,75.56
2019-03-16T01:54:12.172Z,75.26
2019-03-16T01:56:43.710Z,75.25
2019-03-16T01:59:15.152Z,75.31
2019-03-16T02:01:49.175Z,75.41
2019-03-16T02:04:19.954Z,74.79
2019-03-16T02:06:51.481Z,75.02
2019-03-16T02:09:22.981Z,74.83
2019-03-16T02:11:54.462Z,74.44
2019-03-16T02:14:25.835Z,74.69
2019-03-16T02:16:57.350Z,74.05
2019-03-16T02:19:28.938Z,73.17
2019-03-16T02:22:00.297Z,72.49
2019-03-16T02:24:32.063Z,72.41
2019-03-16T02:27:03.557Z,72.59
2019-03-16T02:29:35.160Z,72.25
2019-03-16T02:32:06.586Z,72.49
2019-03-16T02:34:38.090Z,72.28
2019-03-16T02:37:09.386Z,72.38
2019-03-16T02:39:40.773Z,72.54
2019-03-16T02:42:12.171Z,72.82
2019-03-16T02:44:43.557Z,73.17
2019-03-16T02:47:14.987Z,73.43
2019-03-16T02:49:46.364Z,73.52
2019-03-16T02:52:17.715Z,73.73
2019-03-16T02:54:49.135Z,73.77
2019-03-16T02:57:20.497Z,74.15
2019-03-16T02:59:52.039Z,73.86
2019-03-16T03:02:23.304Z,73.40
2019-03-16T03:04:55.783Z,73.51
2019-03-16T03:07:27.373Z,74.36
2019-03-16T03:09:58.558Z,73.65
2019-03-16T03:12:51.699Z,73.82
2019-03-16T03:15:45.068Z,74.59
2019-03-16T03:18:16.464Z,75.05
2019-03-16T03:20:47.700Z,75.42
2019-03-16T03:23:18.983Z,75.86
2019-03-16T03:25:50.113Z,75.72
2019-03-16T03:28:21.359Z,75.79
2019-03-16T03:30:52.574Z,75.84
2019-03-16T03:33:23.974Z,75.43
2019-03-16T03:35:55.220Z,75.64
2019-03-16T03:38:26.368Z,75.97
2019-03-16T03:41:01.331Z,76.31
2019-03-16T03:43:30.603Z,76.90
2019-03-16T03:46:01.792Z,77.52
2019-03-16T03:48:32.885Z,77.36
2019-03-16T03:51:04.140Z,77.08
2019-03-16T03:53:35.357Z,77.52
2019-03-16T03:56:06.624Z,78.48
2019-03-16T03:58:38.050Z,78.75
2019-03-16T04:01:09.282Z,79.22
2019-03-16T04:03:40.689Z,79.44
2019-03-16T04:06:12.000Z,80.11
2019-03-16T04:08:43.104Z,80.38
2019-03-16T04:11:14.257Z,80.44
2019-03-16T04:13:45.513Z,80.27
2019-03-16T04:16:16.745Z,80.74
2019-03-16T04:18:51.485Z,80.77
2019-03-16T04:21:20.833Z,81.30
2019-03-16T04:23:51.979Z,82.46
2019-03-16T04:26:23.221Z,82.26
2019-03-16T04:28:54.464Z,82.08
2019-03-16T04:31:25.677Z,81.93
2019-03-16T04:33:56.848Z,82.29
2019-03-16T04:36:28.099Z,82.77
2019-03-16T04:38:59.341Z,83.54
2019-03-16T04:41:30.461Z,84.07
2019-03-16T04:44:01.749Z,84.76
2019-03-16T04:46:32.932Z,85.21
2019-03-16T04:49:04.186Z,85.01
2019-03-16T04:51:35.496Z,84.97
2019-03-16T04:54:06.640Z,85.38
2019-03-16T04:56:39.480Z,85.79
2019-03-16T04:59:10.704Z,86.05
2019-03-16T05:01:41.967Z,86.38
2019-03-16T05:04:13.215Z,86.70
2019-03-16T05:06:44.457Z,86.50
2019-03-16T05:09:15.695Z,86.72
2019-03-16T05:11:46.984Z,87.08
2019-03-16T05:14:18.206Z,87.17
2019-03-16T05:16:49.334Z,87.29
2019-03-16T05:19:20.607Z,87.46
2019-03-16T05:21:51.833Z,87.34
2019-03-16T05:24:23.083Z,87.49
2019-03-16T05:26:54.267Z,86.79
2019-03-16T05:29:25.475Z,87.01
2019-03-16T05:31:56.690Z,86.97
2019-03-16T05:34:28.001Z,86.74
2019-03-16T05:36:59.221Z,86.99
2019-03-16T05:39:30.465Z,87.14
2019-03-16T05:42:05.002Z,87.10
2019-03-16T05:44:34.617Z,86.85
2019-03-16T05:47:05.805Z,87.19
2019-03-16T05:49:37.008Z,87.13
2019-03-16T05:52:07.582Z,87.22
2019-03-16T05:54:38.848Z,87.26
2019-03-16T05:57:10.136Z,87.01
2019-03-16T05:59:41.394Z,87.36
2019-03-16T06:02:12.654Z,87.66
2019-03-16T06:04:43.890Z,87.94
2019-03-16T06:07:15.131Z,88.17
2019-03-16T06:10:00.377Z,88.16
2019-03-16T06:12:31.726Z,87.86
2019-03-16T06:15:03.053Z,87.85
2019-03-16T06:17:34.339Z,87.88
2019-03-16T06:20:06.331Z,87.71
2019-03-16T06:22:37.622Z,87.88
2019-03-16T06:25:09.038Z,88.14
2019-03-16T06:27:40.302Z,88.28
2019-03-16T06:30:11.995Z,88.12
2019-03-16T06:32:43.309Z,88.09
2019-03-16T06:35:24.398Z,88.04
2019-03-16T06:37:47.510Z,88.13
2019-03-16T06:40:18.820Z,87.95
2019-03-16T06:42:50.121Z,87.67
2019-03-16T06:45:21.321Z,88.01
2019-03-16T06:47:54.790Z,88.17
2019-03-16T06:50:25.594Z,88.07
2019-03-16T06:52:56.897Z,87.96
2019-03-16T06:55:28.186Z,88.08
2019-03-16T06:57:59.484Z,88.10
2019-03-16T07:00:30.788Z,87.72
2019-03-16T07:03:02.076Z,87.88
2019-03-16T07:05:38.299Z,87.77
2019-03-16T07:08:06.192Z,87.70
2019-03-16T07:10:37.417Z,86.94
2019-03-16T07:13:08.622Z,87.61
2019-03-16T07:15:39.868Z,87.55
2019-03-16T07:18:11.134Z,87.68
2019-03-16T07:20:42.270Z,87.94
2019-03-16T07:23:13.654Z,88.02
2019-03-16T07:25:44.914Z,88.18
2019-03-16T07:28:16.185Z,88.41
2019-03-16T07:30:47.578Z,88.06
2019-03-16T07:33:18.914Z,87.43
2019-03-16T07:35:50.167Z,87.35
2019-03-16T07:38:21.555Z,87.71
2019-03-16T07:40:55.453Z,87.69
2019-03-16T07:43:45.622Z,87.88
2019-03-16T07:46:16.892Z,87.65
2019-03-16T07:48:48.178Z,87.74
2019-03-16T07:51:19.457Z,87.94
2019-03-16T07:53:50.658Z,88.51
2019-03-16T07:56:21.838Z,88.53
2019-03-16T07:58:53.055Z,88.43
2019-03-16T08:01:24.367Z,88.42
2019-03-16T08:03:55.570Z,88.36
2019-03-16T08:06:26.851Z,88.40
2019-03-16T08:08:58.117Z,88.49
2019-03-16T08:11:29.352Z,88.79
2019-03-16T08:14:00.683Z,88.89
2019-03-16T08:16:31.925Z,88.28
2019-03-16T08:19:03.058Z,88.33
2019-03-16T08:21:34.214Z,88.14
2019-03-16T08:24:05.526Z,88.25
2019-03-16T08:26:36.787Z,88.13
2019-03-16T08:29:08.029Z,88.24
2019-03-16T08:31:39.228Z,88.43
2019-03-16T08:34:10.547Z,87.96
2019-03-16T08:36:41.952Z,87.62
2019-03-16T08:39:13.293Z,87.29
2019-03-16T08:41:44.646Z,87.40
2019-03-16T08:44:15.917Z,87.35
2019-03-16T08:46:47.299Z,87.14
2019-03-16T08:49:18.643Z,86.44
2019-03-16T08:51:49.983Z,86.33
2019-03-16T08:54:21.348Z,86.13
2019-03-16T08:56:52.713Z,86.10
2019-03-16T08:59:24.539Z,86.18
2019-03-16T09:01:55.942Z,85.94
2019-03-16T09:04:27.210Z,86.34
2019-03-16T09:06:58.455Z,86.28
2019-03-16T09:09:33.072Z,85.91
2019-03-16T09:12:04.414Z,86.21
2019-03-16T09:14:35.677Z,86.17
2019-03-16T09:17:09.031Z,85.73
2019-03-16T09:19:39.781Z,85.75
2019-03-16T09:22:11.010Z,85.47
2019-03-16T09:24:42.290Z,85.44
2019-03-16T09:27:13.528Z,84.61
2019-03-16T09:29:44.768Z,84.58
2019-03-16T09:32:15.931Z,84.25
2019-03-16T09:34:47.130Z,83.60
2019-03-16T09:37:18.296Z,82.83
2019-03-16T09:39:49.529Z,83.09
2019-03-16T09:42:20.819Z,82.86
2019-03-16T09:44:51.974Z,82.17
2019-03-16T09:47:23.116Z,82.21
2019-03-16T09:49:54.364Z,82.50
2019-03-16T09:52:25.625Z,81.83
2019-03-16T09:54:56.817Z,81.71
2019-03-16T09:57:28.067Z,80.85
2019-03-16T09:59:59.351Z,81.21
2019-03-16T10:02:30.964Z,81.27
2019-03-16T10:05:02.123Z,80.41
2019-03-16T10:07:33.357Z,79.63
2019-03-16T10:10:05.181Z,78.78
2019-03-16T10:12:36.511Z,78.79
2019-03-16T10:15:08.353Z,78.16
2019-03-16T10:17:39.569Z,77.54
2019-03-16T10:20:11.169Z,77.13
2019-03-16T10:22:42.429Z,75.91
2019-03-16T10:25:13.674Z,76.47
2019-03-16T10:27:44.925Z,76.38
2019-03-16T10:30:16.446Z,76.31
2019-03-16T10:32:51.190Z,75.81
2019-03-16T10:35:34.599Z,75.40
2019-03-16T10:38:05.863Z,75.21
2019-03-16T10:40:37.274Z,75.16
2019-03-16T10:43:08.547Z,75.92
2019-03-16T10:45:40.521Z,74.72
2019-03-16T10:48:12.011Z,74.78
2019-03-16T10:50:46.633Z,75.16
2019-03-16T10:53:18.170Z,74.58
2019-03-16T10:55:49.573Z,73.75
2019-03-16T10:58:21.815Z,73.91
2019-03-16T11:00:53.143Z,72.88
2019-03-16T11:03:24.359Z,72.46
2019-03-16T11:05:55.623Z,72.21
2019-03-16T11:08:26.907Z,72.44
2019-03-16T11:10:58.260Z,72.46
2019-03-16T11:13:29.554Z,72.28
2019-03-16T11:16:00.861Z,71.65
2019-03-16T11:18:32.134Z,71.47
2019-03-16T11:21:03.368Z,70.40
2019-03-16T11:23:45.494Z,70.48
2019-03-16T11:26:23.660Z,68.81
2019-03-16T11:29:08.962Z,68.49
2019-03-16T11:31:38.845Z,68.06
2019-03-16T11:34:11.096Z,69.20
2019-03-16T11:36:46.407Z,68.27
2019-03-16T11:39:24.770Z,68.16
2019-03-16T11:42:04.852Z,69.06
2019-03-16T11:44:39.302Z,69.00
2019-03-16T11:47:10.640Z,68.48
2019-03-16T11:49:41.951Z,69.02
2019-03-16T11:52:13.205Z,69.00
2019-03-16T11:54:44.478Z,68.92
2019-03-16T11:57:15.869Z,69.06
2019-03-16T11:59:47.100Z,68.69
2019-03-16T12:02:18.364Z,68.83
2019-03-16T12:04:49.597Z,69.33
2019-03-16T12:07:41.289Z,69.74
2019-03-16T12:10:31.989Z,68.19
2019-03-16T12:13:03.371Z,67.67
2019-03-16T12:15:35.644Z,67.54
2019-03-16T12:18:06.991Z,67.08
2019-03-16T12:20:38.274Z,66.91
2019-03-16T12:23:09.797Z,67.52
2019-03-16T12:25:41.124Z,67.80
2019-03-16T12:28:13.841Z,67.62
2019-03-16T12:30:46.455Z,67.86
2019-03-16T12:33:17.982Z,67.69
2019-03-16T12:35:50.350Z,67.89
2019-03-16T12:38:21.712Z,68.10
2019-03-16T12:40:53.124Z,67.54
2019-03-16T12:43:24.379Z,66.92
2019-03-16T12:45:55.690Z,66.82
2019-03-16T12:48:30.021Z,66.36
2019-03-16T12:51:03.602Z,67.62
2019-03-16T12:53:42.357Z,67.40
2019-03-16T12:56:16.856Z,67.99
2019-03-16T12:58:48.141Z,68.87
2019-03-16T13:01:19.523Z,68.86
2019-03-16T13:03:50.851Z,68.41
2019-03-16T13:06:28.024Z,67.85
2019-03-16T13:08:59.397Z,68.18
2019-03-16T13:11:30.750Z,67.68
2019-03-16T13:14:02.053Z,68.10
2019-03-16T13:16:33.346Z,68.26
2019-03-16T13:19:04.625Z,67.71
2019-03-16T13:21:35.884Z,68.96
2019-03-16T13:24:07.260Z,68.94
2019-03-16T13:26:38.551Z,68.87
2019-03-16T13:29:11.321Z,69.35
2019-03-16T13:31:42.567Z,69.26
2019-03-16T13:34:13.865Z,68.34
2019-03-16T13:36:45.167Z,68.27
2019-03-16T13:39:35.422Z,68.88
2019-03-16T13:42:06.692Z,68.69
2019-03-16T13:44:40.551Z,68.21
2019-03-16T13:47:11.818Z,68.17
2019-03-16T13:49:43.022Z,68.54
2019-03-16T13:52:14.420Z,67.50
2019-03-16T13:54:45.774Z,67.20
2019-03-16T13:57:18.983Z,67.49
2019-03-16T13:59:50.247Z,67.68
2019-03-16T14:02:21.477Z,67.06
2019-03-16T14:04:52.889Z,66.51
2019-03-16T14:07:24.146Z,66.28
2019-03-16T14:09:55.451Z,65.57
2019-03-16T14:12:26.715Z,65.50
2019-03-16T14:14:58.247Z,65.01
2019-03-16T14:17:29.540Z,65.30
2019-03-16T14:20:00.717Z,64.83
2019-03-16T14:22:32.004Z,64.91
2019-03-16T14:25:03.142Z,64.67
2019-03-16T14:27:34.488Z,63.85
2019-03-16T14:30:06.324Z,63.52
2019-03-16T14:32:37.608Z,62.45
2019-03-16T14:35:09.357Z,63.21
2019-03-16T14:37:40.665Z,63.82
2019-03-16T14:40:12.726Z,63.95
2019-03-16T14:42:44.237Z,63.63
2019-03-16T14:45:16.093Z,64.54
2019-03-16T14:47:47.465Z,63.91
2019-03-16T14:50:19.474Z,64.22
2019-03-16T14:52:50.723Z,63.99
2019-03-16T14:55:22.052Z,63.86
2019-03-16T14:57:53.173Z,63.93
2019-03-16T15:00:37.606Z,63.95
2019-03-16T15:02:58.503Z,63.86
2019-03-16T15:05:31.781Z,64.00
2019-03-16T15:08:03.021Z,64.39
2019-03-16T15:10:53.248Z,63.95
2019-03-16T15:13:26.769Z,64.24
2019-03-16T15:15:57.331Z,63.99
2019-03-16T15:18:31.142Z,63.85
2019-03-16T15:21:02.359Z,64.38
2019-03-16T15:23:33.674Z,63.96
2019-03-16T15:26:04.841Z,63.56
2019-03-16T15:28:39.050Z,63.73
2019-03-16T15:31:10.332Z,64.19
2019-03-16T15:33:44.846Z,64.13
2019-03-16T15:36:16.092Z,64.48
2019-03-16T15:38:47.371Z,64.31
2019-03-16T15:41:18.671Z,64.70
2019-03-16T15:43:49.875Z,64.88
2019-03-16T15:46:21.057Z,65.22
2019-03-16T15:48:52.278Z,64.70
2019-03-16T15:51:24.171Z,65.68
2019-03-16T15:53:55.729Z,64.98
2019-03-16T15:56:27.812Z,65.60
2019-03-16T15:58:59.237Z,65.21
2019-03-16T16:01:30.362Z,64.88
2019-03-16T16:04:01.618Z,64.68
2019-03-16T16:06:32.795Z,64.95
2019-03-16T16:09:04.202Z,64.54
2019-03-16T16:11:35.401Z,64.57
2019-03-16T16:14:08.661Z,64.29
2019-03-16T16:16:39.949Z,63.76
2019-03-16T16:19:11.104Z,63.63
2019-03-16T16:21:42.405Z,64.03
2019-03-16T16:24:13.534Z,63.27
2019-03-16T16:26:44.852Z,64.65
2019-03-16T16:29:16.129Z,63.63
2019-03-16T16:31:47.429Z,63.60
2019-03-16T16:34:37.575Z,63.50
2019-03-16T16:37:10.408Z,63.72
2019-03-16T16:39:41.704Z,63.63
2019-03-16T16:42:13.005Z,63.27
2019-03-16T16:44:44.271Z,63.04
2019-03-16T16:47:15.490Z,63.51
2019-03-16T16:49:47.064Z,63.13
2019-03-16T16:52:18.347Z,63.42
2019-03-16T16:54:49.572Z,63.49
2019-03-16T16:57:20.787Z,64.13
2019-03-16T16:59:52.051Z,64.05
2019-03-16T17:02:23.269Z,64.18
2019-03-16T17:04:54.519Z,64.50
2019-03-16T17:07:25.725Z,64.34
2019-03-16T17:09:56.970Z,64.81
2019-03-16T17:12:28.221Z,64.73
2019-03-16T17:14:59.479Z,64.63
2019-03-16T17:17:35.349Z,64.37
2019-03-16T17:20:06.286Z,64.66
2019-03-16T17:22:37.666Z,64.83
2019-03-16T17:25:09.207Z,64.50
2019-03-16T17:27:40.477Z,64.74
2019-03-16T17:30:15.617Z,64.95
2019-03-16T17:32:46.922Z,65.29
2019-03-16T17:35:18.331Z,64.98
2019-03-16T17:37:49.578Z,65.00
2019-03-16T17:40:20.842Z,65.36
2019-03-16T17:42:52.090Z,65.18
2019-03-16T17:45:23.478Z,65.23
2019-03-16T17:47:54.739Z,65.48
2019-03-16T17:50:25.919Z,65.14
2019-03-16T17:52:57.211Z,65.05
2019-03-16T17:55:28.491Z,64.93
2019-03-16T17:57:59.911Z,65.00
2019-03-16T18:00:31.281Z,64.87
2019-03-16T18:03:02.530Z,64.71
2019-03-16T18:05:33.945Z,64.44
2019-03-16T18:08:05.169Z,64.20
2019-03-16T18:10:36.439Z,64.10
2019-03-16T18:13:07.759Z,64.26
2019-03-16T18:15:39.055Z,64.53
2019-03-16T18:18:12.704Z,64.47
2019-03-16T18:20:43.979Z,64.81
2019-03-16T18:26:19.682Z,64.60
2019-03-16T18:28:51.013Z,64.83
2019-03-16T18:31:22.280Z,65.02
2019-03-16T18:33:53.582Z,65.07
2019-03-16T18:36:24.785Z,65.32
2019-03-16T18:38:56.027Z,65.27
2019-03-16T18:41:27.359Z,65.59
2019-03-16T18:43:58.623Z,65.73
2019-03-16T18:46:29.854Z,65.63
2019-03-16T18:49:01.102Z,65.23
2019-03-16T18:51:32.390Z,65.16
2019-03-16T18:54:03.673Z,65.26
2019-03-16T18:56:35.023Z,65.80
2019-03-16T18:59:09.105Z,65.60
2019-03-16T19:01:39.215Z,65.26
2019-03-16T19:04:10.452Z,65.56
2019-03-16T19:06:41.769Z,65.38
2019-03-16T19:09:13.011Z,65.55
2019-03-16T19:11:44.315Z,65.77
2019-03-16T19:14:17.900Z,65.67
2019-03-16T19:16:49.185Z,65.42
2019-03-16T19:19:20.414Z,65.45
2019-03-16T19:21:51.661Z,65.49
2019-03-16T19:24:23.109Z,64.73
2019-03-16T19:26:54.380Z,64.91
2019-03-16T19:29:25.714Z,65.17
2019-03-16T19:31:57.103Z,64.98
2019-03-16T19:34:28.425Z,65.01
2019-03-16T19:36:59.865Z,65.26
2019-03-16T19:39:31.510Z,65.17
2019-03-16T19:42:02.652Z,64.95
2019-03-16T19:44:33.878Z,65.16
2019-03-16T19:47:05.186Z,64.96
2019-03-16T19:49:36.822Z,64.19
2019-03-16T19:52:08.194Z,64.51
2019-03-16T19:54:39.888Z,64.51
2019-03-16T19:57:16.226Z,64.84
2019-03-16T19:59:44.115Z,64.62
2019-03-16T20:02:15.435Z,64.18
2019-03-16T20:04:46.662Z,64.43
2019-03-16T20:07:19.467Z,64.66
2019-03-16T20:09:50.897Z,64.26
2019-03-16T20:12:22.231Z,64.32
2019-03-16T20:15:01.176Z,64.80
2019-03-16T20:17:32.342Z,64.10
2019-03-16T20:20:03.523Z,64.23
2019-03-16T20:22:34.963Z,64.23
2019-03-16T20:25:06.268Z,64.15
2019-03-16T20:27:37.666Z,64.40
2019-03-16T20:30:09.629Z,64.50
2019-03-16T20:32:40.914Z,64.71
2019-03-16T20:35:12.378Z,64.37
2019-03-16T20:37:43.604Z,64.74
2019-03-16T20:40:14.877Z,64.85
2019-03-16T20:42:46.277Z,65.03
2019-03-16T20:45:17.801Z,64.69
2019-03-16T20:47:50.282Z,65.11
2019-03-16T20:50:21.783Z,64.97
2019-03-16T20:52:52.942Z,65.13
2019-03-16T20:55:24.217Z,64.78
2019-03-16T20:57:55.439Z,65.18
2019-03-16T21:00:26.929Z,64.97
2019-03-16T21:02:58.068Z,64.98
2019-03-16T21:05:29.381Z,65.02
2019-03-16T21:08:00.674Z,65.07
2019-03-16T21:10:32.037Z,65.22
2019-03-16T21:13:03.377Z,64.57
2019-03-16T21:15:34.683Z,65.26
2019-03-16T21:18:06.124Z,65.57
2019-03-16T21:20:37.427Z,65.09
2019-03-16T21:23:08.945Z,65.54
2019-03-16T21:25:40.479Z,65.11
2019-03-16T21:28:12.205Z,65.35
2019-03-16T21:30:43.483Z,65.25
2019-03-16T21:33:14.825Z,65.54
2019-03-16T21:35:46.035Z,65.17
2019-03-16T21:38:19.821Z,65.52
2019-03-16T21:40:51.085Z,65.34
2019-03-16T21:43:22.437Z,65.45
2019-03-16T21:45:53.730Z,65.53
2019-03-16T21:48:24.991Z,65.51
2019-03-16T21:50:56.327Z,66.04
2019-03-16T21:53:27.698Z,65.62
2019-03-16T21:56:00.062Z,65.79
2019-03-16T21:58:31.349Z,66.10
2019-03-16T22:01:02.697Z,66.04
2019-03-16T22:03:42.149Z,66.34
2019-03-16T22:06:07.566Z,65.69
2019-03-16T22:08:38.982Z,66.04
2019-03-16T22:11:10.228Z,66.19
2019-03-16T22:13:41.509Z,66.08
2019-03-16T22:16:13.968Z,65.86
2019-03-16T22:18:45.235Z,66.31
2019-03-16T22:21:16.443Z,66.23
2019-03-16T22:23:47.914Z,66.20
2019-03-16T22:26:19.278Z,66.48
2019-03-16T22:28:53.382Z,66.17
2019-03-16T22:31:24.743Z,66.19
2019-03-16T22:33:55.891Z,65.98
2019-03-16T22:36:28.393Z,65.95
2019-03-16T22:38:59.687Z,66.24
2019-03-16T22:41:32.460Z,66.16
2019-03-16T22:44:04.064Z,66.30
2019-03-16T22:46:35.374Z,66.66
2019-03-16T22:49:08.229Z,66.33
2019-03-16T22:51:40.191Z,66.72
2019-03-16T22:54:12.708Z,66.81
2019-03-16T22:56:44.571Z,66.41
2019-03-16T22:59:15.857Z,66.68
2019-03-16T23:01:48.955Z,66.58
2019-03-16T23:04:22.236Z,66.50
2019-03-16T23:06:53.693Z,66.60
2019-03-16T23:09:25.082Z,66.54
2019-03-16T23:11:56.450Z,67.00
2019-03-16T23:14:28.117Z,66.92
2019-03-16T23:16:59.600Z,66.84
2019-03-16T23:19:30.778Z,67.28
2019-03-16T23:22:02.003Z,67.10
2019-03-16T23:24:33.350Z,67.18
2019-03-16T23:27:04.547Z,66.86
2019-03-16T23:29:38.674Z,66.85
2019-03-16T23:32:09.881Z,67.18
2019-03-16T23:34:41.164Z,67.08
2019-03-16T23:37:12.415Z,67.14
2019-03-16T23:39:43.675Z,66.95
2019-03-16T23:42:14.987Z,66.94
2019-03-16T23:44:48.997Z,66.96
2019-03-16T23:47:20.380Z,66.59
2019-03-16T23:49:51.702Z,66.87
2019-03-16T23:52:25.826Z,66.54
2019-03-16T23:55:16.245Z,66.55
2019-03-16T23:57:47.508Z,66.44
